Time;durP1;ratioP1;P1;durP2;ratioP2;P2;SDS_P1;SDS_P2;PMS_P1;PMS_P2;Temp;Humidity;BMP_temperature;BMP_pressure;BME280_temperature;BME280_humidity;BME280_pressure;Samples;Min_cycle;Max_cycle;Signal;HPM_P1;HPM_P2
2021/12/18 00:02:19;;;;;;;;;;;;;;;3.55;91.88;99738.75;1786523;78;20143;-84
2021/12/18 00:04:45;;;;;;;;;;;;;;;3.59;91.93;99748.18;1785990;78;24527;-83
2021/12/18 00:07:12;;;;;;;;;;;;;;;3.56;91.90;99741.75;1785500;78;21971;-84
2021/12/18 00:09:40;;;;;;;;;;;;;;;3.55;91.92;99737.89;1773180;78;26148;-86
2021/12/18 00:12:07;;;;;;;;;;;;;;;3.47;91.88;99734.63;1775267;79;24435;-87
2021/12/18 00:14:34;;;;;;;;;;;;;;;3.43;91.82;99744.20;1743517;81;20567;-86
2021/12/18 00:17:00;;;;;;;;;;;;;;;3.42;91.80;99737.75;1734355;81;24705;-86
2021/12/18 00:19:27;;;;;;;;;;;;;;;3.45;91.78;99729.91;1748014;81;21994;-86
2021/12/18 00:21:54;;;;;;;;;;;;;;;3.51;91.80;99738.41;1744783;81;25980;-86
2021/12/18 00:24:20;;;;;;;;;;;;;;;3.57;91.82;99740.88;1745133;80;24400;-86
2021/12/18 00:26:46;;;;;;;;;;;;;;;3.59;91.82;99741.71;1744656;81;20161;-86
2021/12/18 00:29:12;;;;;;;;;;;;;;;3.60;91.79;99747.27;1749506;80;24561;-86
2021/12/18 00:31:39;;;;;;;;;;;;;;;3.59;91.77;99756.38;1749931;80;22487;-86
2021/12/18 00:34:05;;;;;;;;;;;;;;;3.58;91.74;99759.84;1755205;80;25980;-86
2021/12/18 00:36:31;;;;;;;;;;;;;;;3.53;91.68;99762.53;1714633;81;24338;-86
2021/12/18 00:38:58;;;;;;;;;;;;;;;3.48;91.63;99772.13;1741576;80;20601;-86
2021/12/18 00:41:47;;;;;;;;;;;;;;;3.45;91.59;99773.47;1747856;80;24368;-86
2021/12/18 00:44:01;;;;;;;;;;;;;;;3.41;91.53;99765.80;1741276;80;22742;-86
2021/12/18 00:46:35;;;;;;;;;;;;;;;3.39;91.45;99771.00;1735533;80;26215;-86
2021/12/18 00:49:03;;;;;;;;;;;;;;;3.40;91.41;99772.70;1753708;80;24630;-86
2021/12/18 00:51:35;;;;;;;;;;;;;;;3.40;91.39;99774.00;1752943;80;20309;-86
2021/12/18 00:54:02;;;;;;;;;;;;;;;3.38;91.37;99763.67;1701371;82;24781;-86
2021/12/18 00:56:28;;;;;;;;;;;;;;;3.40;91.37;99780.47;1743497;81;21559;-87
2021/12/18 00:58:54;;;;;;;;;;;;;;;3.42;91.37;99779.16;1753358;80;26076;-86
2021/12/18 01:01:21;;;;;;;;;;;;;;;3.42;91.40;99779.16;1746250;80;25182;-87
2021/12/18 01:03:48;;;;;;;;;;;;;;;3.38;91.38;99781.39;1754286;80;20293;-86
2021/12/18 01:06:16;;;;;;;;;;;;;;;3.38;91.38;99783.08;1747492;80;24690;-83
2021/12/18 01:08:42;;;;;;;;;;;;;;;3.39;91.40;99785.23;1753806;80;22036;-83
2021/12/18 01:14:06;;;;;;;;;;;;;;;3.38;91.38;99791.75;1693899;81;24487;-86
2021/12/18 01:16:21;;;;;;;;;;;;;;;3.43;91.45;99792.51;1749196;80;20285;-86
2021/12/18 01:24:13;;;;;;;;;;;;;;;3.48;91.54;99791.54;1737467;81;25984;-86
2021/12/18 01:26:39;;;;;;;;;;;;;;;3.47;91.57;99789.83;1747518;80;24508;-83
2021/12/18 01:29:05;;;;;;;;;;;;;;;3.49;91.59;99795.80;1748514;80;20227;-84
2021/12/18 01:31:31;;;;;;;;;;;;;;;3.47;91.60;99789.83;1749443;80;24520;-83
2021/12/18 01:33:57;;;;;;;;;;;;;;;3.42;91.58;99795.53;1754156;80;21928;-85
2021/12/18 01:36:23;;;;;;;;;;;;;;;3.40;91.58;99789.52;1748802;80;25975;-85
2021/12/18 01:38:49;;;;;;;;;;;;;;;3.42;91.58;99783.89;1748078;80;24674;-84
2021/12/18 01:41:17;;;;;;;;;;;;;;;3.45;91.60;99781.67;1748615;80;20203;-84
2021/12/18 01:54:27;;;;;;;;;;;;;;;3.38;91.47;99777.08;1751224;80;20222;-83
2021/12/18 01:56:54;;;;;;;;;;;;;;;3.38;91.48;99772.34;1749945;80;24586;-83
2021/12/18 01:59:41;;;;;;;;;;;;;;;3.28;91.42;99775.08;1749633;80;21924;-83
2021/12/18 02:02:07;;;;;;;;;;;;;;;3.22;91.35;99780.37;1747785;80;26026;-83
2021/12/18 02:04:34;;;;;;;;;;;;;;;3.18;91.28;99798.13;1745066;80;24498;-85
2021/12/18 02:07:01;;;;;;;;;;;;;;;3.15;91.22;99794.76;1753129;80;20234;-84
2021/12/18 02:09:40;;;;;;;;;;;;;;;3.09;91.15;99803.91;1750927;80;24735;-85
2021/12/18 02:12:03;;;;;;;;;;;;;;;3.04;91.10;99804.00;1753088;80;22612;-85
2021/12/18 02:19:55;;;;;;;;;;;;;;;2.95;90.97;99799.83;1784120;78;20179;-84
2021/12/18 02:22:19;;;;;;;;;;;;;;;2.97;90.97;99801.54;1790742;78;25271;-84
2021/12/18 02:24:45;;;;;;;;;;;;;;;2.95;90.97;99805.44;1786888;78;22052;-82
2021/12/18 02:27:11;;;;;;;;;;;;;;;2.93;90.99;99801.60;1787034;78;26013;-83
2021/12/18 02:29:39;;;;;;;;;;;;;;;2.96;91.00;99798.09;1773987;79;24407;-82
2021/12/18 02:32:06;;;;;;;;;;;;;;;2.98;91.04;99791.17;1753496;80;20203;-83
2021/12/18 02:34:33;;;;;;;;;;;;;;;3.03;91.07;99792.38;1769305;79;25292;-82
2021/12/18 02:37:06;;;;;;;;;;;;;;;3.03;91.12;99793.23;1753458;79;21684;-83
2021/12/18 02:39:58;;;;;;;;;;;;;;;3.02;91.14;99787.65;1764350;78;26677;-85
2021/12/18 02:42:17;;;;;;;;;;;;;;;2.99;91.14;99800.65;1788929;78;24426;-86
2021/12/18 02:44:39;;;;;;;;;;;;;;;3.04;91.16;99796.68;1794094;78;20199;-85
2021/12/18 02:47:07;;;;;;;;;;;;;;;3.03;91.16;99800.14;1784323;79;24430;-84
2021/12/18 02:49:33;;;;;;;;;;;;;;;2.99;91.17;99797.20;1773279;79;23102;-84
2021/12/18 02:52:00;;;;;;;;;;;;;;;2.98;91.14;99792.91;1771216;78;25968;-84
2021/12/18 02:54:26;;;;;;;;;;;;;;;3.00;91.17;99782.94;1794860;78;24413;-84
2021/12/18 02:56:52;;;;;;;;;;;;;;;3.06;91.18;99784.56;1790228;78;20216;-83
2021/12/18 02:59:19;;;;;;;;;;;;;;;3.04;91.19;99786.34;1792580;78;24483;-82
2021/12/18 03:01:45;;;;;;;;;;;;;;;2.98;91.16;99792.47;1785468;78;21922;-83
2021/12/18 03:04:21;;;;;;;;;;;;;;;2.98;91.13;99791.61;1784583;78;25901;-83
2021/12/18 03:06:45;;;;;;;;;;;;;;;2.98;91.11;99783.86;1773120;79;24468;-82
2021/12/18 03:22:57;;;;;;;;;;;;;;;2.92;90.94;99799.03;1760862;79;20262;-82
2021/12/18 03:25:11;;;;;;;;;;;;;;;2.92;90.96;99805.06;1737309;80;25290;-83
2021/12/18 03:27:37;;;;;;;;;;;;;;;2.94;90.96;99801.17;1740798;81;22261;-83
2021/12/18 03:30:09;;;;;;;;;;;;;;;2.93;90.97;99804.19;1764115;79;26586;-85
2021/12/18 03:32:37;;;;;;;;;;;;;;;2.93;90.97;99804.19;1767147;79;24511;-86
2021/12/18 03:35:04;;;;;;;;;;;;;;;2.92;90.98;99809.38;1776006;79;20277;-86
2021/12/18 03:37:30;;;;;;;;;;;;;;;2.91;91.00;99803.35;1772604;79;24618;-86
2021/12/18 03:39:56;;;;;;;;;;;;;;;2.88;90.98;99793.52;1755251;79;22044;-85
2021/12/18 03:42:22;;;;;;;;;;;;;;;2.84;90.95;99807.34;1752135;79;25950;-85
2021/12/18 03:44:48;;;;;;;;;;;;;;;2.81;90.92;99806.12;1777808;79;24512;-83
2021/12/18 03:47:15;;;;;;;;;;;;;;;2.80;90.89;99798.80;1769952;79;20245;-83
2021/12/18 03:49:41;;;;;;;;;;;;;;;2.78;90.87;99801.84;1780004;79;24673;-85
2021/12/18 03:52:07;;;;;;;;;;;;;;;2.78;90.86;99807.01;1776863;79;22034;-85
2021/12/18 03:54:33;;;;;;;;;;;;;;;2.80;90.87;99802.68;1758457;79;25973;-84
2021/12/18 03:56:59;;;;;;;;;;;;;;;2.87;90.92;99800.84;1797944;79;24404;-85
2021/12/18 03:59:25;;;;;;;;;;;;;;;2.87;90.94;99806.02;1725746;82;20314;-85
2021/12/18 04:01:51;;;;;;;;;;;;;;;2.91;91.01;99802.49;1706978;82;24615;-85
2021/12/18 04:04:18;;;;;;;;;;;;;;;2.96;91.05;99796.80;1713443;82;22065;-85
2021/12/18 04:06:44;;;;;;;;;;;;;;;2.99;91.09;99795.47;1720215;81;26072;-85
2021/12/18 04:09:13;;;;;;;;;;;;;;;3.05;91.13;99792.78;1691441;83;24417;-85
2021/12/18 04:11:40;;;;;;;;;;;;;;;3.11;91.18;99790.53;1756028;81;20159;-85
2021/12/18 04:14:06;;;;;;;;;;;;;;;3.15;91.24;99793.03;1753646;80;24621;-85
2021/12/18 04:16:33;;;;;;;;;;;;;;;3.10;91.22;99796.58;1752558;80;22053;-84
2021/12/18 04:19:03;;;;;;;;;;;;;;;3.06;91.18;99786.70;1742019;80;25969;-84
2021/12/18 04:21:31;;;;;;;;;;;;;;;3.05;91.14;99799.25;1756946;80;25470;-87
2021/12/18 04:23:57;;;;;;;;;;;;;;;3.01;91.07;99802.74;1744758;81;20259;-87
2021/12/18 04:26:23;;;;;;;;;;;;;;;2.97;91.05;99807.56;1760988;80;24603;-87
2021/12/18 04:28:50;;;;;;;;;;;;;;;2.93;91.01;99802.89;1733298;81;22202;-86
2021/12/18 04:31:16;;;;;;;;;;;;;;;2.94;90.99;99797.29;1742540;80;25957;-84
2021/12/18 04:33:42;;;;;;;;;;;;;;;2.98;91.00;99799.37;1739815;80;24439;-86
2021/12/18 04:36:09;;;;;;;;;;;;;;;2.99;90.99;99803.23;1749238;80;20195;-87
2021/12/18 04:38:35;;;;;;;;;;;;;;;2.98;91.00;99803.25;1758894;80;24780;-87
2021/12/18 04:41:04;;;;;;;;;;;;;;;3.00;90.97;99811.37;1761948;80;22039;-87
2021/12/18 04:43:30;;;;;;;;;;;;;;;2.89;90.94;99808.16;1758959;80;26598;-86
2021/12/18 04:45:56;;;;;;;;;;;;;;;2.75;90.86;99812.24;1760651;80;24409;-86
2021/12/18 04:48:22;;;;;;;;;;;;;;;2.63;90.73;99807.27;1747278;80;20467;-87
2021/12/18 04:50:48;;;;;;;;;;;;;;;2.58;90.68;99800.46;1734479;80;24708;-87
2021/12/18 04:53:20;;;;;;;;;;;;;;;2.60;90.64;99806.47;1741280;80;21954;-86
2021/12/18 04:55:47;;;;;;;;;;;;;;;2.60;90.62;99803.88;1762136;80;26078;-87
2021/12/18 04:58:13;;;;;;;;;;;;;;;2.66;90.63;99809.81;1745704;80;24463;-87
2021/12/18 05:00:46;;;;;;;;;;;;;;;2.70;90.67;99805.00;1743745;80;20276;-87
2021/12/18 05:03:11;;;;;;;;;;;;;;;2.75;90.74;99805.78;1758215;80;24577;-86
2021/12/18 05:05:36;;;;;;;;;;;;;;;2.83;90.80;99796.63;1754667;80;21974;-86
2021/12/18 05:08:02;;;;;;;;;;;;;;;2.88;90.84;99794.80;1743389;80;20939;-86
2021/12/18 05:10:35;;;;;;;;;;;;;;;2.87;90.87;99796.97;1760456;80;24824;-86
2021/12/18 05:13:01;;;;;;;;;;;;;;;2.93;90.90;99808.50;1714154;83;20214;-86
2021/12/18 05:15:28;;;;;;;;;;;;;;;2.98;90.93;99803.25;1713973;82;25416;-85
2021/12/18 05:17:53;;;;;;;;;;;;;;;3.00;90.97;99802.80;1724799;81;21158;-86
2021/12/18 05:20:20;;;;;;;;;;;;;;;3.00;90.98;99800.20;1718638;83;26015;-86
2021/12/18 05:22:46;;;;;;;;;;;;;;;3.05;91.01;99804.86;1723270;82;24484;-83
2021/12/18 05:25:12;;;;;;;;;;;;;;;3.05;90.99;99809.59;1722405;82;20216;-83
2021/12/18 05:27:39;;;;;;;;;;;;;;;3.06;91.03;99815.16;1721111;82;24562;-83
2021/12/18 05:30:11;;;;;;;;;;;;;;;3.05;91.01;99818.64;1730929;80;21909;-83
2021/12/18 05:32:38;;;;;;;;;;;;;;;3.11;91.04;99812.52;1735531;79;26120;-83
2021/12/18 05:35:10;;;;;;;;;;;;;;;3.20;91.07;99809.31;1716031;80;24591;-83
2021/12/18 05:37:49;;;;;;;;;;;;;;;3.22;91.07;99810.12;1761750;80;20228;-84
2021/12/18 05:40:14;;;;;;;;;;;;;;;3.28;91.08;99807.86;1770972;80;24544;-83
2021/12/18 05:42:40;;;;;;;;;;;;;;;3.32;91.11;99809.53;1763663;80;21499;-84
2021/12/18 05:45:07;;;;;;;;;;;;;;;3.26;91.11;99814.81;1756015;80;26045;-81
2021/12/18 05:47:34;;;;;;;;;;;;;;;3.30;91.10;99812.14;1757338;80;24534;-83
2021/12/18 05:50:01;;;;;;;;;;;;;;;3.31;91.07;99809.97;1756449;80;20336;-83
2021/12/18 05:52:27;;;;;;;;;;;;;;;3.34;91.04;99809.90;1752466;80;24518;-81
2021/12/18 05:54:53;;;;;;;;;;;;;;;3.35;91.05;99802.55;1714708;82;22086;-86
2021/12/18 05:57:19;;;;;;;;;;;;;;;3.35;91.00;99806.44;1705678;82;25972;-85
2021/12/18 05:59:45;;;;;;;;;;;;;;;3.32;90.98;99809.09;1686987;83;24369;-85
2021/12/18 06:02:11;;;;;;;;;;;;;;;3.27;90.93;99801.83;1686761;83;20248;-86
2021/12/18 06:04:38;;;;;;;;;;;;;;;3.23;90.85;99801.92;1706450;82;24502;-86
2021/12/18 06:07:05;;;;;;;;;;;;;;;3.21;90.82;99805.85;1713383;81;22045;-86
2021/12/18 06:09:33;;;;;;;;;;;;;;;3.19;90.76;99827.44;1731481;82;26113;-86
2021/12/18 06:12:00;;;;;;;;;;;;;;;3.16;90.74;99815.87;1724543;81;24658;-86
2021/12/18 06:14:29;;;;;;;;;;;;;;;3.17;90.69;99811.94;1688395;83;20277;-83
2021/12/18 06:16:56;;;;;;;;;;;;;;;3.24;90.66;99813.54;1664018;84;24651;-82
2021/12/18 06:19:22;;;;;;;;;;;;;;;3.24;90.66;99816.13;1704540;82;22645;-82
2021/12/18 06:21:48;;;;;;;;;;;;;;;3.24;90.65;99823.03;1703524;82;26597;-83
2021/12/18 06:24:14;;;;;;;;;;;;;;;3.23;90.59;99829.94;1704660;83;24583;-82
2021/12/18 06:26:41;;;;;;;;;;;;;;;3.24;90.59;99832.94;1706236;82;20481;-82
2021/12/18 06:29:08;;;;;;;;;;;;;;;3.30;90.59;99841.89;1709304;83;24529;-83
2021/12/18 06:31:37;;;;;;;;;;;;;;;3.34;90.59;99834.91;1707423;82;22940;-86
2021/12/18 06:34:04;;;;;;;;;;;;;;;3.35;90.56;99836.62;1688473;83;26063;-86
2021/12/18 06:36:35;;;;;;;;;;;;;;;3.38;90.52;99835.30;1712912;82;22360;-83
2021/12/18 06:39:01;;;;;;;;;;;;;;;3.35;90.45;99820.66;1694710;83;20348;-85
2021/12/18 06:41:27;;;;;;;;;;;;;;;3.36;90.42;99824.11;1701111;83;24521;-85
2021/12/18 06:43:53;;;;;;;;;;;;;;;3.32;90.36;99815.56;1703402;82;21875;-85
2021/12/18 06:46:19;;;;;;;;;;;;;;;3.32;90.28;99818.59;1698853;83;25953;-85
2021/12/18 06:48:46;;;;;;;;;;;;;;;3.29;90.21;99819.92;1702505;83;24480;-87
2021/12/18 06:51:12;;;;;;;;;;;;;;;3.31;90.16;99820.31;1703714;84;20290;-85
2021/12/18 06:53:38;;;;;;;;;;;;;;;3.29;90.11;99827.24;1702133;84;24585;-84
2021/12/18 06:56:05;;;;;;;;;;;;;;;3.30;90.08;99833.27;1686173;84;22009;-86
2021/12/18 06:58:31;;;;;;;;;;;;;;;3.28;90.07;99833.73;1674009;83;25906;-87
2021/12/18 07:00:57;;;;;;;;;;;;;;;3.27;90.04;99838.05;1673115;85;24476;-87
2021/12/18 07:03:25;;;;;;;;;;;;;;;3.27;89.99;99848.86;1675591;83;20286;-85
2021/12/18 07:05:54;;;;;;;;;;;;;;;3.29;89.96;99847.94;1701750;83;24695;-86
2021/12/18 07:08:20;;;;;;;;;;;;;;;3.22;89.90;99848.06;1699857;82;22957;-85
2021/12/18 07:10:46;;;;;;;;;;;;;;;3.16;89.80;99847.76;1691824;82;26038;-85
2021/12/18 07:13:12;;;;;;;;;;;;;;;3.17;89.73;99856.34;1729269;81;24518;-87
2021/12/18 07:15:39;;;;;;;;;;;;;;;3.15;89.69;99858.13;1739820;81;20229;-85
2021/12/18 07:18:05;;;;;;;;;;;;;;;3.16;89.65;99850.34;1739468;81;24537;-86
2021/12/18 07:20:32;;;;;;;;;;;;;;;3.19;89.61;99855.45;1744630;80;21946;-87
2021/12/18 07:22:59;;;;;;;;;;;;;;;3.21;89.59;99850.27;1745300;81;26046;-87
2021/12/18 07:25:25;;;;;;;;;;;;;;;3.18;89.50;99850.30;1747937;81;24634;-87
2021/12/18 07:27:51;;;;;;;;;;;;;;;3.18;89.44;99851.59;1752696;81;20669;-87
2021/12/18 07:30:17;;;;;;;;;;;;;;;3.23;89.43;99849.77;1751236;81;24019;-87
2021/12/18 07:32:43;;;;;;;;;;;;;;;3.26;89.41;99857.06;1746288;81;22174;-85
2021/12/18 07:35:11;;;;;;;;;;;;;;;3.28;89.38;99855.72;1746474;81;26022;-86
2021/12/18 07:37:37;;;;;;;;;;;;;;;3.28;89.34;99857.02;1751939;81;24490;-85
2021/12/18 07:40:14;;;;;;;;;;;;;;;3.26;89.34;99850.59;1753860;81;20310;-85
2021/12/18 07:42:37;;;;;;;;;;;;;;;3.23;89.28;99859.69;1718683;80;24740;-88
2021/12/18 07:45:04;;;;;;;;;;;;;;;3.20;89.22;99866.22;1740936;81;21851;-84
2021/12/18 07:47:31;;;;;;;;;;;;;;;3.15;89.16;99863.30;1745797;81;25539;-84
2021/12/18 07:49:57;;;;;;;;;;;;;;;3.09;89.06;99862.96;1748489;80;24483;-84
2021/12/18 07:52:24;;;;;;;;;;;;;;;3.06;88.99;99863.00;1747182;81;20317;-86
2021/12/18 07:54:50;;;;;;;;;;;;;;;3.06;88.93;99859.55;1743412;81;24522;-84
2021/12/18 07:57:16;;;;;;;;;;;;;;;3.09;88.90;99853.05;1748914;81;21940;-87
2021/12/18 07:59:42;;;;;;;;;;;;;;;3.12;88.86;99851.69;1750441;81;21107;-84
2021/12/18 08:02:09;;;;;;;;;;;;;;;3.15;88.84;99851.22;1750074;81;24470;-83
2021/12/18 08:04:35;;;;;;;;;;;;;;;3.20;88.85;99855.02;1729201;80;20685;-83
2021/12/18 08:07:02;;;;;;;;;;;;;;;3.24;88.84;99845.02;1744966;81;24626;-83
2021/12/18 08:09:28;;;;;;;;;;;;;;;3.27;88.84;99848.39;1753907;81;21735;-83
2021/12/18 08:11:54;;;;;;;;;;;;;;;3.31;88.85;99847.92;1752912;81;25982;-83
2021/12/18 08:14:21;;;;;;;;;;;;;;;3.32;88.86;99854.81;1754744;81;24617;-82
2021/12/18 08:16:48;;;;;;;;;;;;;;;3.31;88.81;99858.27;1756798;81;20249;-83
2021/12/18 08:19:16;;;;;;;;;;;;;;;3.29;88.76;99854.84;1749528;81;24152;-83
2021/12/18 08:21:42;;;;;;;;;;;;;;;3.22;88.67;99854.53;1755662;79;22136;-83
2021/12/18 08:24:08;;;;;;;;;;;;;;;3.21;88.60;99855.00;1746775;80;25979;-83
2021/12/18 08:26:37;;;;;;;;;;;;;;;3.20;88.54;99848.55;1727731;81;24458;-83
2021/12/18 08:29:03;;;;;;;;;;;;;;;3.20;88.50;99851.14;1750081;81;20244;-84
2021/12/18 08:31:29;;;;;;;;;;;;;;;3.27;88.48;99848.39;1760251;81;24498;-83
2021/12/18 08:33:55;;;;;;;;;;;;;;;3.34;88.50;99844.83;1764685;79;21964;-85
2021/12/18 08:36:21;;;;;;;;;;;;;;;3.42;88.51;99852.90;1749574;79;25937;-86
2021/12/18 08:38:47;;;;;;;;;;;;;;;3.48;88.53;99851.06;1750828;79;24494;-86
2021/12/18 08:41:14;;;;;;;;;;;;;;;3.55;88.54;99858.24;1759579;81;20304;-86
2021/12/18 08:43:40;;;;;;;;;;;;;;;3.59;88.55;99854.30;1755402;81;24593;-87
2021/12/18 08:46:06;;;;;;;;;;;;;;;3.69;88.54;99861.44;1758430;81;22111;-86
2021/12/18 08:48:32;;;;;;;;;;;;;;;3.70;88.53;99862.71;1755871;81;26048;-85
2021/12/18 08:50:58;;;;;;;;;;;;;;;3.71;88.48;99856.63;1755634;81;25053;-85
2021/12/18 08:53:24;;;;;;;;;;;;;;;3.77;88.44;99852.62;1749998;81;20356;-86
2021/12/18 08:55:50;;;;;;;;;;;;;;;3.85;88.38;99851.63;1747322;81;24466;-85
2021/12/18 08:58:17;;;;;;;;;;;;;;;3.90;88.34;99848.06;1748670;81;21972;-86
2021/12/18 09:00:43;;;;;;;;;;;;;;;3.90;88.29;99838.15;1763816;79;26623;-85
2021/12/18 09:03:10;;;;;;;;;;;;;;;3.95;88.25;99842.79;1753615;81;24506;-86
2021/12/18 09:05:36;;;;;;;;;;;;;;;3.92;88.16;99845.45;1757204;81;20225;-85
2021/12/18 09:08:03;;;;;;;;;;;;;;;3.91;88.10;99843.30;1751866;81;24526;-86
2021/12/18 09:10:29;;;;;;;;;;;;;;;3.83;88.00;99833.97;1758240;80;21937;-86
2021/12/18 09:12:55;;;;;;;;;;;;;;;3.74;87.86;99829.84;1758984;80;25957;-86
2021/12/18 09:15:21;;;;;;;;;;;;;;;3.66;87.71;99822.21;1752104;81;24504;-86
2021/12/18 09:17:47;;;;;;;;;;;;;;;3.59;87.58;99818.06;1751708;81;20468;-86
2021/12/18 09:20:13;;;;;;;;;;;;;;;3.55;87.42;99826.75;1756201;81;24649;-85
2021/12/18 09:22:41;;;;;;;;;;;;;;;3.50;87.33;99823.39;1736184;81;20301;-85
2021/12/18 09:25:08;;;;;;;;;;;;;;;3.45;87.23;99826.52;1753269;81;25964;-85
2021/12/18 09:27:36;;;;;;;;;;;;;;;3.40;87.14;99827.05;1753512;81;24557;-85
2021/12/18 09:30:08;;;;;;;;;;;;;;;3.36;87.04;99824.11;1751494;81;20213;-85
2021/12/18 09:32:36;;;;;;;;;;;;;;;3.38;87.04;99826.23;1752324;81;24579;-85
2021/12/18 09:35:03;;;;;;;;;;;;;;;3.38;87.03;99824.95;1753898;81;22017;-86
2021/12/18 09:37:30;;;;;;;;;;;;;;;3.35;87.00;99831.45;1749110;81;26651;-87
2021/12/18 09:39:56;;;;;;;;;;;;;;;3.31;86.95;99834.98;1753378;81;24538;-87
2021/12/18 09:42:22;;;;;;;;;;;;;;;3.27;86.93;99836.75;1753622;81;20206;-87
2021/12/18 09:44:49;;;;;;;;;;;;;;;3.25;86.89;99832.50;1749840;81;24721;-87
2021/12/18 09:47:17;;;;;;;;;;;;;;;3.19;86.85;99832.17;1753504;81;21990;-87
2021/12/18 09:49:45;;;;;;;;;;;;;;;3.15;86.83;99825.80;1750178;81;26645;-87
2021/12/18 09:52:11;;;;;;;;;;;;;;;3.09;86.79;99826.75;1755114;81;24083;-87
2021/12/18 09:54:40;;;;;;;;;;;;;;;3.05;86.77;99826.40;1748179;81;20227;-85
2021/12/18 09:57:06;;;;;;;;;;;;;;;3.07;86.77;99822.47;1751887;81;24536;-85
2021/12/18 09:59:32;;;;;;;;;;;;;;;3.04;86.76;99817.37;1752165;80;20286;-85
2021/12/18 10:01:59;;;;;;;;;;;;;;;3.01;86.76;99815.67;1752089;81;26479;-83
2021/12/18 10:04:26;;;;;;;;;;;;;;;2.98;86.76;99811.00;1746839;81;24559;-84
2021/12/18 10:06:52;;;;;;;;;;;;;;;2.98;86.80;99815.74;1750966;81;20230;-83
2021/12/18 10:09:21;;;;;;;;;;;;;;;3.00;86.79;99807.97;1746601;81;20298;-84
2021/12/18 10:11:55;;;;;;;;;;;;;;;3.04;86.81;99808.32;1751001;81;22071;-84
2021/12/18 10:14:35;;;;;;;;;;;;;;;3.03;86.84;99813.92;1751021;81;26339;-83
2021/12/18 10:17:01;;;;;;;;;;;;;;;3.04;86.83;99805.73;1748985;80;25252;-83
2021/12/18 10:19:28;;;;;;;;;;;;;;;3.07;86.83;99810.40;1747302;81;20472;-85
2021/12/18 10:21:59;;;;;;;;;;;;;;;3.13;86.87;99812.88;1748949;81;25299;-83
2021/12/18 10:24:26;;;;;;;;;;;;;;;3.15;86.87;99807.25;1751079;81;22589;-86
2021/12/18 10:26:52;;;;;;;;;;;;;;;3.19;86.88;99798.98;1748791;81;25978;-85
2021/12/18 10:29:26;;;;;;;;;;;;;;;3.20;86.91;99798.97;1748753;81;25133;-87
2021/12/18 10:31:52;;;;;;;;;;;;;;;3.25;86.95;99789.82;1706438;82;20892;-86
2021/12/18 10:34:23;;;;;;;;;;;;;;;3.29;87.00;99784.56;1698164;83;24535;-83
2021/12/18 10:37:09;;;;;;;;;;;;;;;3.30;87.00;99782.39;1748139;80;22845;-86
2021/12/18 10:39:39;;;;;;;;;;;;;;;3.30;86.98;99781.09;1752921;81;26790;-83
2021/12/18 10:42:15;;;;;;;;;;;;;;;3.33;87.00;99780.16;1750529;81;24457;-83
2021/12/18 10:45:00;;;;;;;;;;;;;;;3.36;86.99;99780.13;1732895;80;20300;-86
2021/12/18 10:47:27;;;;;;;;;;;;;;;3.35;87.00;99784.45;1705078;82;24506;-86
2021/12/18 10:49:53;;;;;;;;;;;;;;;3.36;86.97;99785.30;1711379;83;22033;-86
2021/12/18 10:52:21;;;;;;;;;;;;;;;3.33;86.92;99783.61;1697458;82;26668;-83
2021/12/18 10:54:49;;;;;;;;;;;;;;;3.34;86.89;99784.02;1745566;81;25221;-86
2021/12/18 10:57:21;;;;;;;;;;;;;;;3.32;86.88;99773.31;1743774;81;20365;-87
2021/12/18 10:59:52;;;;;;;;;;;;;;;3.32;86.87;99769.43;1759639;81;24906;-85
2021/12/18 11:02:18;;;;;;;;;;;;;;;3.30;86.87;99760.39;1753493;81;21999;-86
2021/12/18 11:04:44;;;;;;;;;;;;;;;3.31;86.87;99769.88;1754898;81;26721;-87
2021/12/18 11:07:18;;;;;;;;;;;;;;;3.30;86.85;99766.01;1753077;81;24483;-87
2021/12/18 11:09:59;;;;;;;;;;;;;;;3.30;86.87;99752.64;1751021;81;20255;-87
2021/12/18 11:14:57;;;;;;;;;;;;;;;3.35;86.90;99734.43;1712689;81;22394;-86
2021/12/18 11:17:23;;;;;;;;;;;;;;;3.38;86.91;99729.21;1745220;81;25863;-86
2021/12/18 11:19:50;;;;;;;;;;;;;;;3.42;86.95;99732.58;1731086;81;24499;-85
2021/12/18 11:22:17;;;;;;;;;;;;;;;3.41;86.94;99733.45;1719525;81;20220;-86
2021/12/18 11:24:49;;;;;;;;;;;;;;;3.39;86.94;99737.36;1720656;81;24526;-83
2021/12/18 11:27:17;;;;;;;;;;;;;;;3.39;86.95;99733.48;1725140;81;22101;-83
2021/12/18 11:29:45;;;;;;;;;;;;;;;3.42;86.98;99737.31;1728944;81;25960;-83
2021/12/18 11:32:13;;;;;;;;;;;;;;;3.46;86.99;99736.36;1727440;81;24676;-83
2021/12/18 11:34:39;;;;;;;;;;;;;;;3.46;87.00;99726.45;1726837;81;20250;-83
2021/12/18 11:37:06;;;;;;;;;;;;;;;3.48;87.00;99720.38;1733366;81;24573;-83
2021/12/18 11:39:34;;;;;;;;;;;;;;;3.47;87.02;99710.90;1727809;81;22077;-83
2021/12/18 11:42:00;;;;;;;;;;;;;;;3.48;87.03;99716.49;1725527;81;26068;-83
2021/12/18 11:44:28;;;;;;;;;;;;;;;3.50;87.06;99708.67;1717909;81;24491;-83
2021/12/18 11:46:54;;;;;;;;;;;;;;;3.50;87.07;99704.35;1730856;81;20294;-83
2021/12/18 11:49:22;;;;;;;;;;;;;;;3.48;87.08;99700.97;1728168;81;25147;-83
2021/12/18 11:51:59;;;;;;;;;;;;;;;3.47;87.05;99699.69;1724175;81;23097;-85
2021/12/18 11:54:43;;;;;;;;;;;;;;;3.44;87.04;99696.72;1726931;81;26795;-86
2021/12/18 11:57:10;;;;;;;;;;;;;;;3.47;87.02;99701.84;1724374;81;24589;-86
2021/12/18 11:59:38;;;;;;;;;;;;;;;3.53;87.07;99705.59;1718337;81;20573;-86
2021/12/18 12:02:11;;;;;;;;;;;;;;;3.59;87.10;99713.68;1733414;81;24592;-86
2021/12/18 12:04:56;;;;;;;;;;;;;;;3.61;87.15;99701.09;1723899;81;21926;-86
2021/12/18 12:07:23;;;;;;;;;;;;;;;3.64;87.18;99704.93;1737837;81;25770;-86
2021/12/18 12:10:11;;;;;;;;;;;;;;;3.67;87.22;99700.97;1722264;81;24548;-86
2021/12/18 12:12:37;;;;;;;;;;;;;;;3.67;87.26;99698.38;1726645;81;20228;-86
2021/12/18 12:15:18;;;;;;;;;;;;;;;3.65;87.26;99688.52;1732721;81;24708;-86
2021/12/18 12:17:49;;;;;;;;;;;;;;;3.68;87.27;99681.11;1747758;81;23037;-86
2021/12/18 12:20:17;;;;;;;;;;;;;;;3.69;87.30;99677.64;1748727;81;26143;-87
2021/12/18 12:22:53;;;;;;;;;;;;;;;3.69;87.30;99674.62;1749529;81;25658;-84
2021/12/18 12:25:16;;;;;;;;;;;;;;;3.65;87.28;99667.81;1757866;81;20515;-84
2021/12/18 12:27:47;;;;;;;;;;;;;;;3.65;87.32;99665.22;1747369;80;24548;-88
2021/12/18 12:30:15;;;;;;;;;;;;;;;3.66;87.32;99659.14;1758123;81;22078;-84
2021/12/18 12:32:42;;;;;;;;;;;;;;;3.63;87.29;99648.01;1763079;81;25996;-84
2021/12/18 12:35:10;;;;;;;;;;;;;;;3.59;87.24;99643.36;1752124;81;25132;-83
2021/12/18 12:37:43;;;;;;;;;;;;;;;3.54;87.21;99643.91;1756629;80;20459;-84
2021/12/18 12:40:16;;;;;;;;;;;;;;;3.51;87.16;99631.02;1749347;81;24563;-84
2021/12/18 12:43:04;;;;;;;;;;;;;;;3.51;87.17;99629.72;1756843;81;20169;-88
2021/12/18 12:45:36;;;;;;;;;;;;;;;3.51;87.18;99629.72;1760578;80;26117;-83
2021/12/18 12:48:02;;;;;;;;;;;;;;;3.52;87.18;99632.72;1756138;81;24433;-86
2021/12/18 12:50:29;;;;;;;;;;;;;;;3.54;87.21;99633.55;1757672;81;20839;-87
2021/12/18 12:53:00;;;;;;;;;;;;;;;3.56;87.25;99628.31;1748316;80;24668;-87
2021/12/18 12:55:27;;;;;;;;;;;;;;;3.56;87.26;99637.38;1760737;81;21952;-87
2021/12/18 12:57:57;;;;;;;;;;;;;;;3.54;87.29;99629.67;1753384;81;26005;-87
2021/12/18 13:00:37;;;;;;;;;;;;;;;3.55;87.32;99626.17;1758240;80;22266;-87
2021/12/18 13:03:09;;;;;;;;;;;;;;;3.54;87.33;99623.64;1758728;80;20264;-87
2021/12/18 13:05:37;;;;;;;;;;;;;;;3.56;87.35;99618.82;1733319;81;24524;-87
2021/12/18 13:08:03;;;;;;;;;;;;;;;3.62;87.40;99612.66;1743599;81;22003;-87
2021/12/18 13:10:36;;;;;;;;;;;;;;;3.63;87.41;99613.06;1761246;80;26118;-87
2021/12/18 13:13:05;;;;;;;;;;;;;;;3.58;87.41;99601.97;1754260;80;24591;-87
2021/12/18 13:15:33;;;;;;;;;;;;;;;3.54;87.37;99602.50;1708390;81;20313;-87
2021/12/18 13:18:07;;;;;;;;;;;;;;;3.47;87.32;99614.30;1662379;84;20691;-87
2021/12/18 13:20:44;;;;;;;;;;;;;;;3.43;87.24;99611.38;1664410;83;20181;-87
2021/12/18 13:23:13;;;;;;;;;;;;;;;3.40;87.22;99608.84;1672144;84;25429;-88
2021/12/18 13:25:51;;;;;;;;;;;;;;;3.41;87.21;99607.97;1693397;81;25098;-88
2021/12/18 13:28:18;;;;;;;;;;;;;;;3.37;87.18;99607.19;1694895;82;20224;-88
2021/12/18 13:30:47;;;;;;;;;;;;;;;3.38;87.15;99603.73;1689961;82;24597;-88
2021/12/18 13:33:13;;;;;;;;;;;;;;;3.39;87.15;99600.23;1634650;85;21981;-88
2021/12/18 13:35:44;;;;;;;;;;;;;;;3.40;87.18;99595.47;1672911;84;22758;-88
2021/12/18 13:38:12;;;;;;;;;;;;;;;3.43;87.22;99592.83;1655636;84;24497;-86
2021/12/18 13:40:46;;;;;;;;;;;;;;;3.48;87.27;99591.42;1691202;82;20172;-88
2021/12/18 13:43:13;;;;;;;;;;;;;;;3.46;87.24;99581.54;1685861;84;24543;-89